sensor_id;sensor_type;location;lat;lon;timestamp;P1;durP1;ratioP1;P2;durP2;ratioP2
22963;SDS011;11648;49.306;6.934;2022-07-23T00:00:09;7.43;;;6.10;;
22963;SDS011;11648;49.306;6.934;2022-07-23T00:02:36;8.33;;;6.97;;
22963;SDS011;11648;49.306;6.934;2022-07-23T00:05:03;8.17;;;6.50;;
22963;SDS011;11648;49.306;6.934;2022-07-23T00:07:30;7.43;;;6.30;;
22963;SDS011;11648;49.306;6.934;2022-07-23T00:09:57;7.90;;;6.33;;
22963;SDS011;11648;49.306;6.934;2022-07-23T00:12:23;6.73;;;6.00;;
22963;SDS011;11648;49.306;6.934;2022-07-23T00:14:50;6.93;;;6.20;;
22963;SDS011;11648;49.306;6.934;2022-07-23T00:17:17;8.40;;;6.90;;
22963;SDS011;11648;49.306;6.934;2022-07-23T00:19:44;9.20;;;6.70;;
22963;SDS011;11648;49.306;6.934;2022-07-23T00:22:10;7.70;;;6.90;;
22963;SDS011;11648;49.306;6.934;2022-07-23T00:24:37;8.07;;;6.73;;
22963;SDS011;11648;49.306;6.934;2022-07-23T00:27:04;8.27;;;6.67;;
22963;SDS011;11648;49.306;6.934;2022-07-23T00:29:30;8.37;;;6.60;;
22963;SDS011;11648;49.306;6.934;2022-07-23T00:31:57;7.47;;;6.77;;
22963;SDS011;11648;49.306;6.934;2022-07-23T00:34:24;10.87;;;7.00;;
22963;SDS011;11648;49.306;6.934;2022-07-23T00:36:50;12.07;;;7.53;;
22963;SDS011;11648;49.306;6.934;2022-07-23T00:39:20;8.23;;;7.33;;
22963;SDS011;11648;49.306;6.934;2022-07-23T00:41:48;8.47;;;7.37;;
22963;SDS011;11648;49.306;6.934;2022-07-23T00:44:17;10.37;;;8.27;;
22963;SDS011;11648;49.306;6.934;2022-07-23T00:46:45;9.37;;;7.93;;
22963;SDS011;11648;49.306;6.934;2022-07-23T00:49:13;11.50;;;8.30;;
22963;SDS011;11648;49.306;6.934;2022-07-23T00:51:40;11.20;;;8.30;;
22963;SDS011;11648;49.306;6.934;2022-07-23T00:54:08;9.50;;;8.10;;
22963;SDS011;11648;49.306;6.934;2022-07-23T00:56:34;10.73;;;8.93;;
22963;SDS011;11648;49.306;6.934;2022-07-23T00:59:01;12.10;;;8.43;;
22963;SDS011;11648;49.306;6.934;2022-07-23T01:01:28;13.03;;;8.87;;
22963;SDS011;11648;49.306;6.934;2022-07-23T01:03:55;9.57;;;8.57;;
22963;SDS011;11648;49.306;6.934;2022-07-23T01:06:22;11.47;;;8.77;;
22963;SDS011;11648;49.306;6.934;2022-07-23T01:08:49;9.80;;;8.50;;
22963;SDS011;11648;49.306;6.934;2022-07-23T01:11:16;8.70;;;7.80;;
22963;SDS011;11648;49.306;6.934;2022-07-23T01:13:44;9.17;;;8.20;;
22963;SDS011;11648;49.306;6.934;2022-07-23T01:16:12;10.37;;;8.67;;
22963;SDS011;11648;49.306;6.934;2022-07-23T01:18:38;9.37;;;8.37;;
22963;SDS011;11648;49.306;6.934;2022-07-23T01:21:05;8.87;;;7.90;;
22963;SDS011;11648;49.306;6.934;2022-07-23T01:23:32;11.07;;;8.03;;
22963;SDS011;11648;49.306;6.934;2022-07-23T01:25:59;8.77;;;7.80;;
22963;SDS011;11648;49.306;6.934;2022-07-23T01:28:26;8.17;;;7.37;;
22963;SDS011;11648;49.306;6.934;2022-07-23T01:30:54;9.47;;;7.90;;
22963;SDS011;11648;49.306;6.934;2022-07-23T01:33:21;9.37;;;7.87;;
22963;SDS011;11648;49.306;6.934;2022-07-23T01:35:48;8.63;;;7.83;;
22963;SDS011;11648;49.306;6.934;2022-07-23T01:38:21;10.10;;;8.57;;
22963;SDS011;11648;49.306;6.934;2022-07-23T01:40:48;9.03;;;7.90;;
22963;SDS011;11648;49.306;6.934;2022-07-23T01:43:22;11.70;;;8.53;;
22963;SDS011;11648;49.306;6.934;2022-07-23T01:45:53;9.13;;;8.20;;
22963;SDS011;11648;49.306;6.934;2022-07-23T01:48:20;9.30;;;8.40;;
22963;SDS011;11648;49.306;6.934;2022-07-23T01:51:07;10.37;;;9.30;;
22963;SDS011;11648;49.306;6.934;2022-07-23T01:53:41;9.53;;;8.53;;
22963;SDS011;11648;49.306;6.934;2022-07-23T01:56:07;10.70;;;8.83;;
22963;SDS011;11648;49.306;6.934;2022-07-23T01:58:34;9.07;;;8.17;;
22963;SDS011;11648;49.306;6.934;2022-07-23T02:01:01;9.47;;;8.23;;
22963;SDS011;11648;49.306;6.934;2022-07-23T02:03:28;8.97;;;8.00;;
22963;SDS011;11648;49.306;6.934;2022-07-23T02:05:54;11.30;;;9.30;;
22963;SDS011;11648;49.306;6.934;2022-07-23T02:08:21;10.17;;;8.87;;
22963;SDS011;11648;49.306;6.934;2022-07-23T02:10:48;9.87;;;8.87;;
22963;SDS011;11648;49.306;6.934;2022-07-23T02:13:17;10.00;;;8.60;;
22963;SDS011;11648;49.306;6.934;2022-07-23T02:15:45;10.27;;;8.93;;
22963;SDS011;11648;49.306;6.934;2022-07-23T02:18:13;11.27;;;9.57;;
22963;SDS011;11648;49.306;6.934;2022-07-23T02:20:40;11.60;;;8.87;;
22963;SDS011;11648;49.306;6.934;2022-07-23T02:23:07;9.80;;;8.80;;
22963;SDS011;11648;49.306;6.934;2022-07-23T02:25:34;10.57;;;9.13;;
22963;SDS011;11648;49.306;6.934;2022-07-23T02:28:00;9.73;;;8.73;;
22963;SDS011;11648;49.306;6.934;2022-07-23T02:30:27;10.40;;;8.70;;
22963;SDS011;11648;49.306;6.934;2022-07-23T02:32:54;13.13;;;11.02;;
22963;SDS011;11648;49.306;6.934;2022-07-23T02:35:22;11.10;;;9.93;;
22963;SDS011;11648;49.306;6.934;2022-07-23T02:37:49;11.57;;;9.33;;
22963;SDS011;11648;49.306;6.934;2022-07-23T02:40:17;11.10;;;9.20;;
22963;SDS011;11648;49.306;6.934;2022-07-23T02:42:44;8.90;;;8.00;;
22963;SDS011;11648;49.306;6.934;2022-07-23T02:45:12;10.80;;;9.03;;
22963;SDS011;11648;49.306;6.934;2022-07-23T02:47:39;9.50;;;8.17;;
22963;SDS011;11648;49.306;6.934;2022-07-23T02:50:05;9.40;;;8.17;;
22963;SDS011;11648;49.306;6.934;2022-07-23T02:52:33;10.03;;;9.03;;
22963;SDS011;11648;49.306;6.934;2022-07-23T02:55:00;9.80;;;8.57;;
22963;SDS011;11648;49.306;6.934;2022-07-23T02:57:27;10.53;;;9.33;;
22963;SDS011;11648;49.306;6.934;2022-07-23T02:59:55;9.90;;;8.53;;
22963;SDS011;11648;49.306;6.934;2022-07-23T03:02:22;10.50;;;9.40;;
22963;SDS011;11648;49.306;6.934;2022-07-23T03:04:49;10.50;;;9.40;;
22963;SDS011;11648;49.306;6.934;2022-07-23T03:07:17;12.70;;;10.27;;
22963;SDS011;11648;49.306;6.934;2022-07-23T03:09:44;11.80;;;10.57;;
22963;SDS011;11648;49.306;6.934;2022-07-23T03:12:10;11.37;;;10.20;;
22963;SDS011;11648;49.306;6.934;2022-07-23T03:14:40;12.47;;;10.37;;
22963;SDS011;11648;49.306;6.934;2022-07-23T03:17:07;11.07;;;9.80;;
22963;SDS011;11648;49.306;6.934;2022-07-23T03:19:35;9.57;;;8.63;;
22963;SDS011;11648;49.306;6.934;2022-07-23T03:22:03;10.70;;;9.57;;
22963;SDS011;11648;49.306;6.934;2022-07-23T03:24:29;10.83;;;9.73;;
22963;SDS011;11648;49.306;6.934;2022-07-23T03:27:16;12.13;;;10.00;;
22963;SDS011;11648;49.306;6.934;2022-07-23T03:29:42;9.93;;;9.03;;
22963;SDS011;11648;49.306;6.934;2022-07-23T03:32:09;11.27;;;8.53;;
22963;SDS011;11648;49.306;6.934;2022-07-23T03:34:38;10.33;;;9.07;;
22963;SDS011;11648;49.306;6.934;2022-07-23T03:37:05;9.97;;;8.93;;
22963;SDS011;11648;49.306;6.934;2022-07-23T03:39:34;9.47;;;8.57;;
22963;SDS011;11648;49.306;6.934;2022-07-23T03:42:01;9.30;;;8.30;;
22963;SDS011;11648;49.306;6.934;2022-07-23T03:44:28;11.83;;;9.43;;
22963;SDS011;11648;49.306;6.934;2022-07-23T03:46:55;10.20;;;8.77;;
22963;SDS011;11648;49.306;6.934;2022-07-23T03:49:21;10.20;;;8.87;;
22963;SDS011;11648;49.306;6.934;2022-07-23T03:51:48;9.80;;;8.87;;
22963;SDS011;11648;49.306;6.934;2022-07-23T03:54:15;10.20;;;8.70;;
22963;SDS011;11648;49.306;6.934;2022-07-23T03:56:41;9.87;;;8.97;;
22963;SDS011;11648;49.306;6.934;2022-07-23T03:59:09;9.87;;;8.83;;
22963;SDS011;11648;49.306;6.934;2022-07-23T04:01:36;10.40;;;8.63;;
22963;SDS011;11648;49.306;6.934;2022-07-23T04:04:03;10.60;;;9.17;;
22963;SDS011;11648;49.306;6.934;2022-07-23T04:06:31;10.30;;;9.30;;
22963;SDS011;11648;49.306;6.934;2022-07-23T04:08:58;11.23;;;10.03;;
22963;SDS011;11648;49.306;6.934;2022-07-23T04:11:28;9.77;;;8.77;;
22963;SDS011;11648;49.306;6.934;2022-07-23T04:13:54;11.30;;;9.13;;
22963;SDS011;11648;49.306;6.934;2022-07-23T04:16:21;11.20;;;9.47;;
22963;SDS011;11648;49.306;6.934;2022-07-23T04:18:48;10.67;;;9.67;;
22963;SDS011;11648;49.306;6.934;2022-07-23T04:21:18;12.23;;;10.30;;
22963;SDS011;11648;49.306;6.934;2022-07-23T04:23:46;11.97;;;10.30;;
22963;SDS011;11648;49.306;6.934;2022-07-23T04:26:13;11.13;;;9.93;;
22963;SDS011;11648;49.306;6.934;2022-07-23T04:28:44;12.53;;;10.77;;
22963;SDS011;11648;49.306;6.934;2022-07-23T04:31:11;10.27;;;9.20;;
22963;SDS011;11648;49.306;6.934;2022-07-23T04:33:38;9.97;;;9.07;;
22963;SDS011;11648;49.306;6.934;2022-07-23T04:36:06;11.83;;;10.40;;
22963;SDS011;11648;49.306;6.934;2022-07-23T04:38:33;11.93;;;10.30;;
22963;SDS011;11648;49.306;6.934;2022-07-23T04:41:02;11.30;;;10.13;;
22963;SDS011;11648;49.306;6.934;2022-07-23T04:43:28;12.23;;;10.87;;
22963;SDS011;11648;49.306;6.934;2022-07-23T04:45:55;13.33;;;11.00;;
22963;SDS011;11648;49.306;6.934;2022-07-23T04:48:21;12.30;;;11.10;;
22963;SDS011;11648;49.306;6.934;2022-07-23T04:50:56;12.50;;;11.20;;
22963;SDS011;11648;49.306;6.934;2022-07-23T04:53:26;13.27;;;11.97;;
22963;SDS011;11648;49.306;6.934;2022-07-23T04:55:57;11.83;;;10.63;;
22963;SDS011;11648;49.306;6.934;2022-07-23T04:58:23;12.50;;;11.20;;
22963;SDS011;11648;49.306;6.934;2022-07-23T05:00:50;16.60;;;12.00;;
22963;SDS011;11648;49.306;6.934;2022-07-23T05:03:17;12.07;;;10.77;;
22963;SDS011;11648;49.306;6.934;2022-07-23T05:05:45;11.50;;;10.47;;
22963;SDS011;11648;49.306;6.934;2022-07-23T05:08:14;10.50;;;9.37;;
22963;SDS011;11648;49.306;6.934;2022-07-23T05:10:43;12.97;;;11.40;;
22963;SDS011;11648;49.306;6.934;2022-07-23T05:13:09;13.00;;;11.67;;
22963;SDS011;11648;49.306;6.934;2022-07-23T05:15:36;12.50;;;10.30;;
22963;SDS011;11648;49.306;6.934;2022-07-23T05:18:03;12.23;;;10.93;;
22963;SDS011;11648;49.306;6.934;2022-07-23T05:20:31;12.63;;;11.30;;
22963;SDS011;11648;49.306;6.934;2022-07-23T05:22:57;12.80;;;11.50;;
22963;SDS011;11648;49.306;6.934;2022-07-23T05:25:24;12.70;;;11.50;;
22963;SDS011;11648;49.306;6.934;2022-07-23T05:27:51;14.50;;;12.50;;
22963;SDS011;11648;49.306;6.934;2022-07-23T05:30:18;14.43;;;12.60;;
22963;SDS011;11648;49.306;6.934;2022-07-23T05:32:46;14.57;;;13.17;;
22963;SDS011;11648;49.306;6.934;2022-07-23T05:35:16;13.73;;;12.50;;
22963;SDS011;11648;49.306;6.934;2022-07-23T05:37:52;13.73;;;12.30;;
22963;SDS011;11648;49.306;6.934;2022-07-23T05:40:19;13.53;;;12.07;;
22963;SDS011;11648;49.306;6.934;2022-07-23T05:42:46;12.30;;;11.10;;
22963;SDS011;11648;49.306;6.934;2022-07-23T05:45:12;13.40;;;11.87;;
22963;SDS011;11648;49.306;6.934;2022-07-23T05:47:44;11.77;;;10.57;;
22963;SDS011;11648;49.306;6.934;2022-07-23T05:50:24;12.17;;;10.90;;
22963;SDS011;11648;49.306;6.934;2022-07-23T05:52:57;12.73;;;10.97;;
22963;SDS011;11648;49.306;6.934;2022-07-23T05:55:23;11.10;;;10.00;;
22963;SDS011;11648;49.306;6.934;2022-07-23T05:57:50;10.93;;;9.83;;
22963;SDS011;11648;49.306;6.934;2022-07-23T06:00:17;12.07;;;10.60;;
22963;SDS011;11648;49.306;6.934;2022-07-23T06:02:45;10.67;;;9.57;;
22963;SDS011;11648;49.306;6.934;2022-07-23T06:05:18;11.33;;;10.13;;
22963;SDS011;11648;49.306;6.934;2022-07-23T06:07:45;12.13;;;10.93;;
22963;SDS011;11648;49.306;6.934;2022-07-23T06:10:14;12.30;;;11.10;;
22963;SDS011;11648;49.306;6.934;2022-07-23T06:12:40;12.97;;;11.10;;
22963;SDS011;11648;49.306;6.934;2022-07-23T06:15:08;10.60;;;9.60;;
22963;SDS011;11648;49.306;6.934;2022-07-23T06:17:37;10.57;;;8.97;;
22963;SDS011;11648;49.306;6.934;2022-07-23T06:20:09;11.87;;;10.00;;
22963;SDS011;11648;49.306;6.934;2022-07-23T06:22:38;10.50;;;9.20;;
22963;SDS011;11648;49.306;6.934;2022-07-23T06:25:05;10.70;;;9.60;;
22963;SDS011;11648;49.306;6.934;2022-07-23T06:27:44;10.57;;;9.47;;
22963;SDS011;11648;49.306;6.934;2022-07-23T06:30:11;9.57;;;8.47;;
22963;SDS011;11648;49.306;6.934;2022-07-23T06:32:38;11.40;;;10.27;;
22963;SDS011;11648;49.306;6.934;2022-07-23T06:35:05;9.80;;;8.80;;
22963;SDS011;11648;49.306;6.934;2022-07-23T06:37:32;10.13;;;9.13;;
22963;SDS011;11648;49.306;6.934;2022-07-23T06:40:00;9.37;;;8.47;;
22963;SDS011;11648;49.306;6.934;2022-07-23T06:42:27;10.40;;;8.60;;
22963;SDS011;11648;49.306;6.934;2022-07-23T06:44:57;13.13;;;9.90;;
22963;SDS011;11648;49.306;6.934;2022-07-23T06:47:24;10.57;;;9.47;;
22963;SDS011;11648;49.306;6.934;2022-07-23T06:49:50;11.63;;;9.97;;
22963;SDS011;11648;49.306;6.934;2022-07-23T06:52:17;11.60;;;10.40;;
22963;SDS011;11648;49.306;6.934;2022-07-23T06:54:44;9.90;;;8.90;;
22963;SDS011;11648;49.306;6.934;2022-07-23T06:57:10;12.43;;;10.13;;
22963;SDS011;11648;49.306;6.934;2022-07-23T06:59:37;13.87;;;10.33;;
22963;SDS011;11648;49.306;6.934;2022-07-23T07:02:07;11.87;;;10.17;;
22963;SDS011;11648;49.306;6.934;2022-07-23T07:04:35;11.83;;;10.00;;
22963;SDS011;11648;49.306;6.934;2022-07-23T07:07:01;10.87;;;9.87;;
22963;SDS011;11648;49.306;6.934;2022-07-23T07:09:28;10.10;;;9.20;;
22963;SDS011;11648;49.306;6.934;2022-07-23T07:11:55;10.37;;;9.33;;
22963;SDS011;11648;49.306;6.934;2022-07-23T07:14:22;11.83;;;10.07;;
22963;SDS011;11648;49.306;6.934;2022-07-23T07:16:49;10.23;;;9.23;;
22963;SDS011;11648;49.306;6.934;2022-07-23T07:19:16;11.15;;;10.02;;
22963;SDS011;11648;49.306;6.934;2022-07-23T07:21:42;16.95;;;10.73;;
22963;SDS011;11648;49.306;6.934;2022-07-23T07:24:09;13.00;;;10.73;;
22963;SDS011;11648;49.306;6.934;2022-07-23T07:26:35;10.52;;;9.38;;
22963;SDS011;11648;49.306;6.934;2022-07-23T07:29:02;12.18;;;9.77;;
22963;SDS011;11648;49.306;6.934;2022-07-23T07:31:30;13.68;;;10.13;;
22963;SDS011;11648;49.306;6.934;2022-07-23T07:33:56;10.43;;;9.43;;
22963;SDS011;11648;49.306;6.934;2022-07-23T07:36:24;10.85;;;9.82;;
22963;SDS011;11648;49.306;6.934;2022-07-23T07:38:51;11.18;;;9.02;;
22963;SDS011;11648;49.306;6.934;2022-07-23T07:41:17;10.55;;;8.88;;
22963;SDS011;11648;49.306;6.934;2022-07-23T07:43:49;10.65;;;9.55;;
22963;SDS011;11648;49.306;6.934;2022-07-23T07:46:16;9.32;;;8.35;;
22963;SDS011;11648;49.306;6.934;2022-07-23T07:48:43;9.52;;;8.38;;
22963;SDS011;11648;49.306;6.934;2022-07-23T07:51:09;8.88;;;7.75;;
22963;SDS011;11648;49.306;6.934;2022-07-23T07:53:36;12.15;;;8.68;;
22963;SDS011;11648;49.306;6.934;2022-07-23T07:56:03;10.15;;;8.25;;
22963;SDS011;11648;49.306;6.934;2022-07-23T07:58:31;10.00;;;8.70;;
22963;SDS011;11648;49.306;6.934;2022-07-23T08:00:57;11.57;;;9.73;;
22963;SDS011;11648;49.306;6.934;2022-07-23T08:03:24;9.57;;;8.50;;
22963;SDS011;11648;49.306;6.934;2022-07-23T08:05:51;11.32;;;9.98;;
22963;SDS011;11648;49.306;6.934;2022-07-23T08:08:18;10.30;;;9.23;;
22963;SDS011;11648;49.306;6.934;2022-07-23T08:10:44;11.68;;;9.93;;
22963;SDS011;11648;49.306;6.934;2022-07-23T08:13:12;9.55;;;8.35;;
22963;SDS011;11648;49.306;6.934;2022-07-23T08:15:41;10.73;;;9.50;;
22963;SDS011;11648;49.306;6.934;2022-07-23T08:18:09;12.13;;;10.38;;
22963;SDS011;11648;49.306;6.934;2022-07-23T08:20:35;9.65;;;8.70;;
22963;SDS011;11648;49.306;6.934;2022-07-23T08:23:03;11.60;;;10.50;;
22963;SDS011;11648;49.306;6.934;2022-07-23T08:28:07;9.93;;;8.95;;
22963;SDS011;11648;49.306;6.934;2022-07-23T08:30:36;12.43;;;9.90;;
22963;SDS011;11648;49.306;6.934;2022-07-23T08:33:08;10.55;;;9.55;;
22963;SDS011;11648;49.306;6.934;2022-07-23T08:35:59;10.65;;;9.65;;
22963;SDS011;11648;49.306;6.934;2022-07-23T08:38:29;11.02;;;9.88;;
22963;SDS011;11648;49.306;6.934;2022-07-23T08:40:56;11.05;;;9.63;;
22963;SDS011;11648;49.306;6.934;2022-07-23T08:43:27;13.00;;;10.27;;
22963;SDS011;11648;49.306;6.934;2022-07-23T08:45:56;11.73;;;8.25;;
22963;SDS011;11648;49.306;6.934;2022-07-23T08:48:26;8.70;;;7.88;;
22963;SDS011;11648;49.306;6.934;2022-07-23T08:51:03;8.38;;;7.53;;
22963;SDS011;11648;49.306;6.934;2022-07-23T08:53:34;9.10;;;8.20;;
22963;SDS011;11648;49.306;6.934;2022-07-23T08:56:05;9.23;;;7.90;;
22963;SDS011;11648;49.306;6.934;2022-07-23T08:58:33;10.90;;;8.25;;
22963;SDS011;11648;49.306;6.934;2022-07-23T09:01:00;9.65;;;8.70;;
22963;SDS011;11648;49.306;6.934;2022-07-23T09:03:31;12.23;;;8.20;;
22963;SDS011;11648;49.306;6.934;2022-07-23T09:06:00;9.00;;;8.05;;
22963;SDS011;11648;49.306;6.934;2022-07-23T09:11:00;8.82;;;7.63;;
22963;SDS011;11648;49.306;6.934;2022-07-23T09:21:11;9.00;;;8.10;;
22963;SDS011;11648;49.306;6.934;2022-07-23T09:23:59;9.60;;;8.25;;
22963;SDS011;11648;49.306;6.934;2022-07-23T09:26:35;8.35;;;7.40;;
22963;SDS011;11648;49.306;6.934;2022-07-23T09:31:33;8.10;;;6.97;;
22963;SDS011;11648;49.306;6.934;2022-07-23T09:34:06;8.07;;;6.85;;
22963;SDS011;11648;49.306;6.934;2022-07-23T09:36:35;7.57;;;6.78;;
22963;SDS011;11648;49.306;6.934;2022-07-23T09:39:03;8.13;;;7.32;;
22963;SDS011;11648;49.306;6.934;2022-07-23T09:41:34;8.13;;;6.53;;
22963;SDS011;11648;49.306;6.934;2022-07-23T09:44:16;8.60;;;6.78;;
22963;SDS011;11648;49.306;6.934;2022-07-23T09:46:50;9.05;;;7.60;;
22963;SDS011;11648;49.306;6.934;2022-07-23T09:49:24;7.30;;;6.50;;
22963;SDS011;11648;49.306;6.934;2022-07-23T09:51:55;7.75;;;7.05;;
22963;SDS011;11648;49.306;6.934;2022-07-23T09:54:25;10.80;;;7.72;;
22963;SDS011;11648;49.306;6.934;2022-07-23T09:56:55;7.70;;;7.00;;
22963;SDS011;11648;49.306;6.934;2022-07-23T09:59:24;9.48;;;7.47;;
22963;SDS011;11648;49.306;6.934;2022-07-23T10:01:54;8.32;;;7.53;;
22963;SDS011;11648;49.306;6.934;2022-07-23T10:04:23;9.13;;;7.95;;
22963;SDS011;11648;49.306;6.934;2022-07-23T10:07:21;9.80;;;8.23;;
22963;SDS011;11648;49.306;6.934;2022-07-23T10:10:24;7.70;;;7.00;;
22963;SDS011;11648;49.306;6.934;2022-07-23T10:12:56;7.32;;;6.63;;
22963;SDS011;11648;49.306;6.934;2022-07-23T10:15:25;8.75;;;7.95;;
22963;SDS011;11648;49.306;6.934;2022-07-23T10:17:52;9.73;;;8.15;;
22963;SDS011;11648;49.306;6.934;2022-07-23T10:20:19;8.88;;;7.40;;
22963;SDS011;11648;49.306;6.934;2022-07-23T10:23:11;8.02;;;7.22;;
22963;SDS011;11648;49.306;6.934;2022-07-23T10:31:25;9.60;;;8.75;;
22963;SDS011;11648;49.306;6.934;2022-07-23T10:34:25;8.38;;;7.15;;
22963;SDS011;11648;49.306;6.934;2022-07-23T10:37:17;8.13;;;7.32;;
22963;SDS011;11648;49.306;6.934;2022-07-23T10:40:11;7.40;;;6.80;;
22963;SDS011;11648;49.306;6.934;2022-07-23T10:42:39;8.57;;;7.68;;
22963;SDS011;11648;49.306;6.934;2022-07-23T10:48:11;7.78;;;7.00;;
22963;SDS011;11648;49.306;6.934;2022-07-23T10:50:41;8.25;;;7.32;;
22963;SDS011;11648;49.306;6.934;2022-07-23T10:55:40;7.95;;;7.25;;
22963;SDS011;11648;49.306;6.934;2022-07-23T10:58:09;7.75;;;6.32;;
22963;SDS011;11648;49.306;6.934;2022-07-23T11:00:36;7.68;;;6.00;;
22963;SDS011;11648;49.306;6.934;2022-07-23T11:05:58;7.43;;;6.63;;
22963;SDS011;11648;49.306;6.934;2022-07-23T11:08:25;8.82;;;6.60;;
22963;SDS011;11648;49.306;6.934;2022-07-23T11:13:38;6.88;;;6.18;;
22963;SDS011;11648;49.306;6.934;2022-07-23T11:16:17;7.75;;;6.18;;
22963;SDS011;11648;49.306;6.934;2022-07-23T11:32:07;6.65;;;6.05;;
22963;SDS011;11648;49.306;6.934;2022-07-23T11:34:47;7.07;;;6.30;;
22963;SDS011;11648;49.306;6.934;2022-07-23T11:40:06;7.38;;;6.60;;
22963;SDS011;11648;49.306;6.934;2022-07-23T11:42:38;7.10;;;6.45;;
22963;SDS011;11648;49.306;6.934;2022-07-23T11:45:07;7.30;;;6.60;;
22963;SDS011;11648;49.306;6.934;2022-07-23T11:47:35;7.60;;;6.90;;
22963;SDS011;11648;49.306;6.934;2022-07-23T11:50:03;7.60;;;6.30;;
22963;SDS011;11648;49.306;6.934;2022-07-23T11:52:31;7.45;;;6.53;;
22963;SDS011;11648;49.306;6.934;2022-07-23T11:55:02;7.47;;;6.47;;
22963;SDS011;11648;49.306;6.934;2022-07-23T11:57:35;7.53;;;6.50;;
22963;SDS011;11648;49.306;6.934;2022-07-23T12:00:07;7.10;;;6.40;;
22963;SDS011;11648;49.306;6.934;2022-07-23T12:02:56;9.38;;;5.97;;
22963;SDS011;11648;49.306;6.934;2022-07-23T12:05:28;7.57;;;6.65;;
22963;SDS011;11648;49.306;6.934;2022-07-23T12:07:56;6.38;;;5.75;;
22963;SDS011;11648;49.306;6.934;2022-07-23T12:12:52;7.47;;;6.30;;
22963;SDS011;11648;49.306;6.934;2022-07-23T12:15:22;7.55;;;6.85;;
22963;SDS011;11648;49.306;6.934;2022-07-23T12:17:51;6.82;;;6.13;;
22963;SDS011;11648;49.306;6.934;2022-07-23T12:20:20;6.95;;;6.25;;
22963;SDS011;11648;49.306;6.934;2022-07-23T12:22:49;7.38;;;6.68;;
22963;SDS011;11648;49.306;6.934;2022-07-23T12:25:21;7.25;;;6.50;;
22963;SDS011;11648;49.306;6.934;2022-07-23T12:30:57;7.32;;;6.28;;
22963;SDS011;11648;49.306;6.934;2022-07-23T12:35:54;7.78;;;6.97;;
22963;SDS011;11648;49.306;6.934;2022-07-23T12:38:24;7.32;;;6.63;;
22963;SDS011;11648;49.306;6.934;2022-07-23T12:40:53;6.78;;;6.07;;
22963;SDS011;11648;49.306;6.934;2022-07-23T12:43:29;6.63;;;5.90;;
22963;SDS011;11648;49.306;6.934;2022-07-23T12:51:24;7.15;;;6.00;;
22963;SDS011;11648;49.306;6.934;2022-07-23T12:53:57;7.07;;;6.15;;
22963;SDS011;11648;49.306;6.934;2022-07-23T12:56:31;7.20;;;6.50;;
22963;SDS011;11648;49.306;6.934;2022-07-23T13:01:32;6.97;;;6.15;;
22963;SDS011;11648;49.306;6.934;2022-07-23T13:04:19;6.28;;;5.63;;
22963;SDS011;11648;49.306;6.934;2022-07-23T13:09:19;6.53;;;5.93;;
22963;SDS011;11648;49.306;6.934;2022-07-23T13:11:51;6.85;;;6.15;;
22963;SDS011;11648;49.306;6.934;2022-07-23T13:14:22;6.05;;;5.28;;
22963;SDS011;11648;49.306;6.934;2022-07-23T13:16:52;8.45;;;5.88;;
22963;SDS011;11648;49.306;6.934;2022-07-23T13:19:22;6.78;;;6.07;;
22963;SDS011;11648;49.306;6.934;2022-07-23T13:21:50;6.40;;;5.80;;
22963;SDS011;11648;49.306;6.934;2022-07-23T13:24:17;7.82;;;5.85;;
22963;SDS011;11648;49.306;6.934;2022-07-23T13:26:45;8.02;;;6.03;;
22963;SDS011;11648;49.306;6.934;2022-07-23T13:29:13;6.18;;;5.63;;
22963;SDS011;11648;49.306;6.934;2022-07-23T13:31:42;7.95;;;5.82;;
22963;SDS011;11648;49.306;6.934;2022-07-23T13:34:11;7.05;;;6.00;;
22963;SDS011;11648;49.306;6.934;2022-07-23T13:36:38;8.10;;;4.93;;
22963;SDS011;11648;49.306;6.934;2022-07-23T13:39:05;8.43;;;5.30;;
22963;SDS011;11648;49.306;6.934;2022-07-23T13:41:35;5.57;;;4.85;;
22963;SDS011;11648;49.306;6.934;2022-07-23T13:44:03;5.32;;;4.75;;
22963;SDS011;11648;49.306;6.934;2022-07-23T13:46:30;7.72;;;6.30;;
22963;SDS011;11648;49.306;6.934;2022-07-23T13:48:56;6.47;;;5.32;;
22963;SDS011;11648;49.306;6.934;2022-07-23T13:51:24;7.57;;;5.90;;
22963;SDS011;11648;49.306;6.934;2022-07-23T13:53:51;5.43;;;4.93;;
22963;SDS011;11648;49.306;6.934;2022-07-23T13:56:18;6.35;;;5.68;;
22963;SDS011;11648;49.306;6.934;2022-07-23T13:58:46;6.07;;;5.22;;
22963;SDS011;11648;49.306;6.934;2022-07-23T14:01:14;6.45;;;5.25;;
22963;SDS011;11648;49.306;6.934;2022-07-23T14:03:43;6.05;;;5.32;;
22963;SDS011;11648;49.306;6.934;2022-07-23T14:06:10;5.40;;;4.90;;
22963;SDS011;11648;49.306;6.934;2022-07-23T14:08:42;5.95;;;5.22;;
22963;SDS011;11648;49.306;6.934;2022-07-23T14:11:13;6.38;;;5.40;;
22963;SDS011;11648;49.306;6.934;2022-07-23T14:13:40;7.10;;;5.78;;
22963;SDS011;11648;49.306;6.934;2022-07-23T14:16:07;6.45;;;5.72;;
22963;SDS011;11648;49.306;6.934;2022-07-23T14:18:34;7.60;;;6.35;;
22963;SDS011;11648;49.306;6.934;2022-07-23T14:21:03;7.22;;;5.90;;
22963;SDS011;11648;49.306;6.934;2022-07-23T14:23:32;6.18;;;5.57;;
22963;SDS011;11648;49.306;6.934;2022-07-23T14:25:59;6.88;;;5.88;;
22963;SDS011;11648;49.306;6.934;2022-07-23T14:28:26;7.25;;;6.15;;
22963;SDS011;11648;49.306;6.934;2022-07-23T14:30:52;7.18;;;6.25;;
22963;SDS011;11648;49.306;6.934;2022-07-23T14:33:19;6.97;;;6.30;;
22963;SDS011;11648;49.306;6.934;2022-07-23T14:35:46;17.20;;;6.57;;
22963;SDS011;11648;49.306;6.934;2022-07-23T14:38:13;7.88;;;7.07;;
22963;SDS011;11648;49.306;6.934;2022-07-23T14:40:40;7.18;;;6.43;;
22963;SDS011;11648;49.306;6.934;2022-07-23T14:43:08;7.20;;;6.50;;
22963;SDS011;11648;49.306;6.934;2022-07-23T14:45:37;9.98;;;6.38;;
22963;SDS011;11648;49.306;6.934;2022-07-23T14:48:05;6.57;;;5.97;;
22963;SDS011;11648;49.306;6.934;2022-07-23T14:50:32;7.88;;;6.85;;
22963;SDS011;11648;49.306;6.934;2022-07-23T14:52:58;6.88;;;6.07;;
22963;SDS011;11648;49.306;6.934;2022-07-23T14:55:25;12.40;;;7.13;;
22963;SDS011;11648;49.306;6.934;2022-07-23T14:57:52;8.27;;;7.47;;
22963;SDS011;11648;49.306;6.934;2022-07-23T15:00:18;8.20;;;6.68;;
22963;SDS011;11648;49.306;6.934;2022-07-23T15:02:49;8.77;;;6.63;;
22963;SDS011;11648;49.306;6.934;2022-07-23T15:05:20;9.50;;;6.78;;
22963;SDS011;11648;49.306;6.934;2022-07-23T15:07:47;7.82;;;6.78;;
22963;SDS011;11648;49.306;6.934;2022-07-23T15:10:14;7.88;;;6.75;;
22963;SDS011;11648;49.306;6.934;2022-07-23T15:12:45;6.80;;;6.10;;
22963;SDS011;11648;49.306;6.934;2022-07-23T15:15:12;6.88;;;6.18;;
22963;SDS011;11648;49.306;6.934;2022-07-23T15:17:41;8.75;;;7.72;;
22963;SDS011;11648;49.306;6.934;2022-07-23T15:20:08;8.70;;;7.13;;
22963;SDS011;11648;49.306;6.934;2022-07-23T15:22:36;6.97;;;6.38;;
22963;SDS011;11648;49.306;6.934;2022-07-23T15:25:03;7.70;;;7.00;;
22963;SDS011;11648;49.306;6.934;2022-07-23T15:27:30;8.95;;;7.03;;
22963;SDS011;11648;49.306;6.934;2022-07-23T15:29:56;7.82;;;7.03;;
22963;SDS011;11648;49.306;6.934;2022-07-23T15:32:23;9.23;;;6.85;;
22963;SDS011;11648;49.306;6.934;2022-07-23T15:34:53;7.53;;;6.72;;
22963;SDS011;11648;49.306;6.934;2022-07-23T15:37:20;7.97;;;7.05;;
22963;SDS011;11648;49.306;6.934;2022-07-23T15:39:50;8.00;;;7.20;;
22963;SDS011;11648;49.306;6.934;2022-07-23T15:42:18;8.20;;;7.40;;
22963;SDS011;11648;49.306;6.934;2022-07-23T15:44:45;7.80;;;7.00;;
22963;SDS011;11648;49.306;6.934;2022-07-23T15:47:14;9.23;;;7.55;;
22963;SDS011;11648;49.306;6.934;2022-07-23T15:49:43;8.02;;;7.20;;
22963;SDS011;11648;49.306;6.934;2022-07-23T15:52:10;7.28;;;6.53;;
22963;SDS011;11648;49.306;6.934;2022-07-23T15:54:38;7.90;;;6.80;;
22963;SDS011;11648;49.306;6.934;2022-07-23T15:57:06;7.38;;;6.68;;